Time;durP1;ratioP1;P1;durP2;ratioP2;P2;SDS_P1;SDS_P2;PMS_P1;PMS_P2;Temp;Humidity;BMP_temperature;BMP_pressure;BME280_temperature;BME280_humidity;BME280_pressure;Samples;Min_cycle;Max_cycle;Signal;HPM_P1;HPM_P2
2023/07/02 00:01:11;;;;;;;14.13;6.47;;;16.40;99.90;;;;;;5072625;28;20098;-56
2023/07/02 00:03:38;;;;;;;16.98;6.53;;;16.30;99.90;;;;;;5072228;28;20392;-56
2023/07/02 00:06:04;;;;;;;22.88;6.47;;;16.30;99.90;;;;;;5072483;28;20517;-56
2023/07/02 00:08:30;;;;;;;20.13;7.18;;;16.20;99.90;;;;;;5071991;28;20483;-56
2023/07/02 00:10:55;;;;;;;18.40;7.53;;;16.20;99.90;;;;;;5072531;28;20032;-55
2023/07/02 00:13:21;;;;;;;19.42;7.93;;;16.10;99.90;;;;;;5070767;28;20056;-55
2023/07/02 00:15:47;;;;;;;21.83;7.85;;;16.10;99.90;;;;;;5072215;28;20037;-55
2023/07/02 00:18:16;;;;;;;19.27;6.85;;;16.10;99.90;;;;;;5072003;28;20040;-55
2023/07/02 00:20:42;;;;;;;17.05;6.78;;;16.10;99.90;;;;;;5070723;28;20048;-55
2023/07/02 00:23:09;;;;;;;16.48;7.30;;;16.10;99.90;;;;;;5071126;28;20041;-55
2023/07/02 00:25:36;;;;;;;23.70;7.78;;;16.00;99.90;;;;;;5072081;28;20421;-55
2023/07/02 00:28:01;;;;;;;19.42;6.53;;;16.00;99.90;;;;;;5071791;28;20055;-55
2023/07/02 00:30:27;;;;;;;18.92;7.30;;;16.00;99.90;;;;;;5071992;28;20052;-55
2023/07/02 00:32:53;;;;;;;22.67;7.95;;;16.00;99.90;;;;;;5071790;28;20045;-56
2023/07/02 00:35:18;;;;;;;25.90;7.75;;;16.00;99.90;;;;;;5072051;28;20048;-55
2023/07/02 00:37:44;;;;;;;18.73;7.80;;;16.00;99.90;;;;;;5071993;28;20063;-55
2023/07/02 00:40:10;;;;;;;19.67;7.45;;;16.00;99.90;;;;;;5072185;28;20383;-55
2023/07/02 00:42:36;;;;;;;25.10;8.57;;;15.90;99.90;;;;;;5071444;28;20036;-55
2023/07/02 00:45:05;;;;;;;21.65;8.07;;;15.90;99.90;;;;;;5072008;28;20472;-55
2023/07/02 00:47:35;;;;;;;21.75;8.25;;;15.90;99.90;;;;;;5068207;28;20037;-55
2023/07/02 00:50:02;;;;;;;20.02;7.97;;;15.80;99.90;;;;;;5050374;28;20090;-56
2023/07/02 00:52:27;;;;;;;20.98;8.27;;;15.80;99.90;;;;;;5055066;28;20116;-56
2023/07/02 00:54:53;;;;;;;27.63;8.52;;;15.70;99.90;;;;;;5061357;28;20107;-55
2023/07/02 00:57:19;;;;;;;23.63;7.47;;;15.70;99.90;;;;;;5062979;28;20548;-55
2023/07/02 00:59:46;;;;;;;24.85;7.65;;;15.70;99.90;;;;;;5066209;28;20033;-55
2023/07/02 01:02:12;;;;;;;21.75;8.15;;;15.70;99.90;;;;;;5071796;28;20090;-55
2023/07/02 01:04:39;;;;;;;25.58;8.40;;;15.60;99.90;;;;;;5071768;28;20036;-55
2023/07/02 01:07:11;;;;;;;26.65;8.30;;;15.60;99.90;;;;;;5057343;28;20071;-56
2023/07/02 01:09:36;;;;;;;32.97;8.07;;;15.60;99.90;;;;;;5073294;28;20415;-55
2023/07/02 01:12:05;;;;;;;25.02;8.73;;;15.60;99.90;;;;;;5075559;28;20177;-55
2023/07/02 01:14:38;;;;;;;24.15;9.00;;;15.60;99.90;;;;;;5075897;28;20051;-55
2023/07/02 01:17:05;;;;;;;22.98;8.48;;;15.60;99.90;;;;;;5075673;28;20044;-55
2023/07/02 01:19:52;;;;;;;25.42;8.88;;;15.60;99.90;;;;;;5075755;28;20478;-55
2023/07/02 01:22:19;;;;;;;27.40;8.90;;;15.50;99.90;;;;;;5072179;28;20397;-55
2023/07/02 01:24:48;;;;;;;28.05;8.70;;;15.60;99.90;;;;;;5065444;28;20048;-55
2023/07/02 01:27:17;;;;;;;30.13;8.95;;;15.60;99.90;;;;;;5075351;28;20052;-56
2023/07/02 01:29:47;;;;;;;24.88;8.93;;;15.60;99.90;;;;;;5075196;28;20075;-56
2023/07/02 01:32:13;;;;;;;23.33;8.82;;;15.60;99.90;;;;;;5074946;28;20049;-56
2023/07/02 01:34:39;;;;;;;22.80;8.07;;;15.50;99.90;;;;;;5074939;28;20510;-55
2023/07/02 01:37:06;;;;;;;21.13;8.02;;;15.50;99.90;;;;;;5075268;28;20032;-55
2023/07/02 01:39:31;;;;;;;23.70;8.32;;;15.40;99.90;;;;;;5075135;28;20492;-55
2023/07/02 01:42:15;;;;;;;27.90;9.75;;;15.40;99.90;;;;;;5075216;28;20107;-55
2023/07/02 01:44:42;;;;;;;27.48;9.45;;;15.40;99.90;;;;;;5074872;28;20083;-56
2023/07/02 01:47:08;;;;;;;27.00;9.80;;;15.30;99.90;;;;;;5074915;28;20079;-55
2023/07/02 01:49:34;;;;;;;28.05;8.63;;;15.30;99.90;;;;;;5074905;28;20082;-55
2023/07/02 01:52:00;;;;;;;24.58;8.60;;;15.30;99.90;;;;;;5074895;28;20048;-56
2023/07/02 01:54:27;;;;;;;26.48;8.45;;;15.30;99.90;;;;;;5074779;28;20098;-56
2023/07/02 01:56:54;;;;;;;20.65;8.30;;;15.20;99.90;;;;;;5067382;28;20055;-55
2023/07/02 01:59:19;;;;;;;24.38;8.65;;;15.10;99.90;;;;;;5068388;28;20036;-55
2023/07/02 02:01:45;;;;;;;30.83;10.02;;;15.10;99.90;;;;;;5074431;28;20398;-55
2023/07/02 02:04:11;;;;;;;25.60;9.13;;;15.00;99.90;;;;;;5074940;28;20036;-55
2023/07/02 02:06:38;;;;;;;32.00;9.15;;;15.00;99.90;;;;;;5074534;28;20041;-55
2023/07/02 02:09:04;;;;;;;25.77;8.95;;;15.00;99.90;;;;;;5074527;28;20040;-56
2023/07/02 02:11:31;;;;;;;27.40;9.13;;;15.00;99.90;;;;;;5074573;28;20036;-55
2023/07/02 02:13:58;;;;;;;23.02;8.65;;;14.90;99.90;;;;;;5074707;28;20032;-55
2023/07/02 02:16:24;;;;;;;23.45;9.20;;;14.90;99.90;;;;;;5074639;28;20036;-56
2023/07/02 02:18:53;;;;;;;26.40;8.88;;;14.80;99.90;;;;;;5074146;28;20482;-55
2023/07/02 02:21:20;;;;;;;25.30;8.85;;;14.80;99.90;;;;;;5074199;28;20033;-55
2023/07/02 02:23:46;;;;;;;30.52;8.65;;;14.70;99.90;;;;;;5074117;28;20490;-55
2023/07/02 02:26:12;;;;;;;27.02;9.52;;;14.70;99.90;;;;;;5074459;28;20037;-55
2023/07/02 02:28:37;;;;;;;31.85;9.45;;;14.70;99.90;;;;;;5074125;28;20089;-56
2023/07/02 02:31:03;;;;;;;22.88;8.25;;;14.70;99.90;;;;;;5074054;28;20028;-56
2023/07/02 02:33:29;;;;;;;24.98;8.18;;;14.60;99.90;;;;;;5073772;28;20062;-56
2023/07/02 02:35:55;;;;;;;28.88;10.32;;;14.60;99.90;;;;;;5074170;28;20044;-55
2023/07/02 02:38:20;;;;;;;25.40;8.70;;;14.60;99.90;;;;;;5074351;28;20086;-55
2023/07/02 02:40:46;;;;;;;37.58;9.57;;;14.50;99.90;;;;;;5074005;28;20538;-56
2023/07/02 02:43:12;;;;;;;20.23;8.48;;;14.50;99.90;;;;;;5073774;28;20071;-56
2023/07/02 02:45:38;;;;;;;32.42;10.15;;;14.50;99.90;;;;;;5074019;28;20040;-55
2023/07/02 02:48:04;;;;;;;22.85;9.00;;;14.40;99.90;;;;;;5074119;28;20896;-55
2023/07/02 02:50:30;;;;;;;25.85;9.43;;;14.50;99.90;;;;;;5074112;28;20036;-55
2023/07/02 02:52:55;;;;;;;27.98;9.02;;;14.50;99.90;;;;;;5073672;28;20098;-55
2023/07/02 02:55:21;;;;;;;24.55;8.80;;;14.40;99.90;;;;;;5073693;28;20068;-55
2023/07/02 02:57:46;;;;;;;27.25;9.40;;;14.50;99.90;;;;;;5059134;28;20087;-55
2023/07/02 03:00:12;;;;;;;27.02;9.05;;;14.40;99.90;;;;;;5073935;28;20033;-56
2023/07/02 03:02:38;;;;;;;26.90;9.18;;;14.30;99.90;;;;;;5072075;28;20106;-56
2023/07/02 03:05:06;;;;;;;31.48;9.50;;;14.40;99.90;;;;;;5073513;28;20040;-55
2023/07/02 03:07:32;;;;;;;23.50;8.73;;;14.40;99.90;;;;;;5072298;28;20074;-55
2023/07/02 03:09:58;;;;;;;31.17;9.73;;;14.30;99.90;;;;;;5073293;28;20116;-56
2023/07/02 03:12:25;;;;;;;27.30;8.90;;;14.30;99.90;;;;;;5073269;28;20049;-55
2023/07/02 03:14:54;;;;;;;26.70;9.57;;;14.20;99.90;;;;;;5073020;28;20036;-56
2023/07/02 03:17:22;;;;;;;22.92;8.88;;;14.20;99.90;;;;;;5073331;28;20443;-55
2023/07/02 03:19:48;;;;;;;28.38;9.55;;;14.20;99.90;;;;;;5073139;28;20483;-55
2023/07/02 03:22:14;;;;;;;32.15;10.00;;;14.20;99.90;;;;;;5073132;28;20037;-55
2023/07/02 03:24:39;;;;;;;22.75;8.88;;;14.10;99.90;;;;;;5073153;28;20115;-55
2023/07/02 03:27:05;;;;;;;27.08;9.43;;;14.10;99.90;;;;;;5072746;28;20036;-55
2023/07/02 03:29:35;;;;;;;24.20;9.30;;;14.10;99.90;;;;;;5073128;28;20115;-55
2023/07/02 03:32:01;;;;;;;32.50;9.55;;;14.10;99.90;;;;;;5072314;28;20090;-55
2023/07/02 03:34:26;;;;;;;28.38;10.27;;;14.10;99.90;;;;;;5072797;28;20451;-55
2023/07/02 03:36:52;;;;;;;26.05;9.02;;;14.20;99.90;;;;;;5072641;28;20122;-56
2023/07/02 03:39:18;;;;;;;26.90;8.82;;;14.10;99.90;;;;;;5072682;28;20068;-55
2023/07/02 03:41:44;;;;;;;27.95;9.45;;;14.10;99.90;;;;;;5073045;28;20040;-55
2023/07/02 03:44:10;;;;;;;27.33;9.07;;;14.20;99.90;;;;;;5072852;28;20047;-54
2023/07/02 03:46:36;;;;;;;29.13;9.50;;;14.20;99.90;;;;;;5072839;28;20040;-55
2023/07/02 03:49:03;;;;;;;25.15;9.25;;;14.20;99.90;;;;;;5072764;28;20048;-55
2023/07/02 03:51:29;;;;;;;26.17;9.15;;;14.30;99.90;;;;;;5072711;28;20040;-55
2023/07/02 03:53:54;;;;;;;27.80;9.57;;;14.30;99.90;;;;;;5072363;28;20390;-55
2023/07/02 03:56:20;;;;;;;27.92;9.52;;;14.30;99.90;;;;;;5068811;28;20041;-55
2023/07/02 03:58:46;;;;;;;31.85;9.23;;;14.30;99.90;;;;;;5060138;28;20043;-55
2023/07/02 04:01:12;;;;;;;23.02;8.82;;;14.30;99.90;;;;;;5072550;28;20474;-55
2023/07/02 04:03:38;;;;;;;29.48;9.05;;;14.30;99.90;;;;;;5072615;28;20386;-55
2023/07/02 04:06:06;;;;;;;23.33;8.30;;;14.30;99.90;;;;;;5072575;28;20036;-55
2023/07/02 04:08:32;;;;;;;27.40;10.02;;;14.30;99.90;;;;;;5072469;28;20086;-55
2023/07/02 04:10:58;;;;;;;23.55;8.68;;;14.30;99.90;;;;;;5072502;28;20037;-55
2023/07/02 04:13:23;;;;;;;20.83;7.97;;;14.40;99.90;;;;;;5070557;28;20448;-55
2023/07/02 04:15:49;;;;;;;21.52;8.35;;;14.40;99.90;;;;;;5072514;28;20522;-55
2023/07/02 04:18:15;;;;;;;24.83;8.70;;;14.40;99.90;;;;;;5072014;28;20043;-55
2023/07/02 04:20:41;;;;;;;26.00;9.70;;;14.40;99.90;;;;;;5072405;28;20043;-55
2023/07/02 04:23:06;;;;;;;29.20;8.65;;;14.40;99.90;;;;;;5072042;28;20048;-55
2023/07/02 04:25:32;;;;;;;26.25;8.80;;;14.50;99.90;;;;;;5072304;28;20036;-55
2023/07/02 04:27:58;;;;;;;29.02;10.27;;;14.60;99.90;;;;;;5072192;28;20036;-55
2023/07/02 04:30:25;;;;;;;21.55;8.18;;;14.60;99.90;;;;;;5071935;28;20071;-55
2023/07/02 04:32:51;;;;;;;27.48;8.82;;;14.60;99.90;;;;;;5071794;28;20505;-55
2023/07/02 04:35:18;;;;;;;25.15;8.55;;;14.70;99.90;;;;;;5072010;28;20048;-55
2023/07/02 04:37:43;;;;;;;22.00;7.80;;;14.70;99.90;;;;;;5072201;28;20039;-56
2023/07/02 04:40:10;;;;;;;20.23;8.10;;;14.70;99.90;;;;;;5072130;28;20395;-55
2023/07/02 04:42:39;;;;;;;24.25;7.38;;;14.70;99.90;;;;;;5071985;28;20434;-55
2023/07/02 04:45:06;;;;;;;34.88;10.20;;;14.80;99.90;;;;;;5071803;28;20032;-55
2023/07/02 04:47:32;;;;;;;24.33;8.48;;;14.70;99.90;;;;;;5071833;28;20032;-55
2023/07/02 04:49:58;;;;;;;24.67;8.38;;;14.80;99.90;;;;;;5072070;28;20493;-55
2023/07/02 04:52:24;;;;;;;26.30;7.90;;;14.90;99.90;;;;;;5071746;28;20045;-55
2023/07/02 04:54:50;;;;;;;23.67;7.53;;;14.90;99.90;;;;;;5071721;28;20117;-56
2023/07/02 04:57:15;;;;;;;23.42;8.05;;;15.10;99.90;;;;;;5061533;28;20037;-55
2023/07/02 04:59:42;;;;;;;23.58;8.23;;;15.20;99.90;;;;;;5068287;28;20499;-56
2023/07/02 05:02:08;;;;;;;24.08;7.80;;;15.20;99.90;;;;;;5071732;28;20083;-55
2023/07/02 05:04:35;;;;;;;21.50;7.72;;;15.30;99.90;;;;;;5071931;28;20076;-55
2023/07/02 05:07:00;;;;;;;25.27;8.82;;;15.40;99.90;;;;;;5072014;28;20082;-55
2023/07/02 05:09:26;;;;;;;21.33;7.57;;;15.50;99.90;;;;;;5071822;28;20041;-55
2023/07/02 05:11:52;;;;;;;18.60;6.90;;;15.60;99.90;;;;;;5071427;28;20086;-56
2023/07/02 05:14:17;;;;;;;18.35;6.95;;;15.70;99.90;;;;;;5071546;28;20478;-55
2023/07/02 05:16:43;;;;;;;19.58;6.13;;;15.80;99.90;;;;;;5071384;28;20044;-55
2023/07/02 05:19:08;;;;;;;17.60;6.15;;;15.80;99.90;;;;;;5071457;28;20040;-55
2023/07/02 05:21:34;;;;;;;13.55;5.50;;;15.80;99.90;;;;;;5071562;28;20066;-56
2023/07/02 05:24:00;;;;;;;13.13;5.60;;;15.80;99.90;;;;;;5071359;28;20390;-55
2023/07/02 05:26:26;;;;;;;16.10;6.28;;;15.80;99.90;;;;;;5071671;28;20064;-55
2023/07/02 05:28:52;;;;;;;20.63;6.55;;;15.80;99.90;;;;;;5071552;28;20115;-56
2023/07/02 05:31:18;;;;;;;15.10;5.47;;;15.70;99.90;;;;;;5071384;28;20435;-56
2023/07/02 05:33:44;;;;;;;20.77;6.50;;;15.70;99.90;;;;;;5071181;28;20053;-55
2023/07/02 05:36:09;;;;;;;17.55;6.45;;;15.70;99.90;;;;;;5071223;28;20033;-56
2023/07/02 05:38:35;;;;;;;18.13;6.70;;;15.80;99.90;;;;;;5069480;28;20095;-56
2023/07/02 05:41:02;;;;;;;19.15;5.85;;;15.80;99.90;;;;;;5071195;28;20476;-56
2023/07/02 05:43:28;;;;;;;20.08;6.53;;;16.00;99.90;;;;;;5071304;28;20085;-56
2023/07/02 05:45:53;;;;;;;18.83;6.20;;;16.10;99.90;;;;;;5071094;28;20115;-55
2023/07/02 05:48:19;;;;;;;16.13;5.88;;;16.30;99.90;;;;;;5071594;28;20045;-55
2023/07/02 05:50:45;;;;;;;19.25;5.63;;;16.30;99.90;;;;;;5069872;28;20040;-55
2023/07/02 05:53:10;;;;;;;17.05;5.55;;;16.30;99.90;;;;;;5071231;28;20052;-54
2023/07/02 05:55:37;;;;;;;14.75;5.45;;;16.40;99.90;;;;;;5072438;28;20036;-56
2023/07/02 05:58:03;;;;;;;18.88;6.40;;;16.40;99.90;;;;;;5060881;28;20051;-55
2023/07/02 06:00:29;;;;;;;24.98;7.70;;;16.50;99.90;;;;;;5075038;28;20453;-55
2023/07/02 06:02:54;;;;;;;21.45;6.32;;;16.60;99.90;;;;;;5074466;28;20128;-55
2023/07/02 06:05:20;;;;;;;21.17;5.80;;;16.60;99.90;;;;;;5074621;28;20115;-56
2023/07/02 06:07:46;;;;;;;17.42;5.82;;;16.70;99.90;;;;;;5074513;28;20125;-55
2023/07/02 06:10:12;;;;;;;14.90;6.25;;;16.80;99.90;;;;;;5074819;28;20040;-55
2023/07/02 06:12:38;;;;;;;15.57;5.63;;;16.80;99.90;;;;;;5074841;28;20094;-55
2023/07/02 06:15:05;;;;;;;19.38;6.28;;;16.90;99.90;;;;;;5074562;28;20417;-56
2023/07/02 06:17:31;;;;;;;16.58;6.50;;;17.00;99.90;;;;;;5074688;28;20043;-55
2023/07/02 06:19:57;;;;;;;22.92;5.57;;;17.10;99.90;;;;;;5074104;28;20033;-56
2023/07/02 06:22:23;;;;;;;18.05;6.72;;;17.20;99.90;;;;;;5074538;28;20032;-55
2023/07/02 06:24:48;;;;;;;20.58;6.40;;;17.20;99.90;;;;;;5074517;28;20036;-55
2023/07/02 06:27:14;;;;;;;19.25;6.60;;;17.20;99.90;;;;;;5074138;28;20367;-55
2023/07/02 06:29:40;;;;;;;25.38;7.63;;;17.30;99.90;;;;;;5074193;28;20514;-55
2023/07/02 06:32:06;;;;;;;17.33;6.57;;;17.40;99.90;;;;;;5073993;28;20127;-55
2023/07/02 06:34:32;;;;;;;17.15;5.68;;;17.40;99.90;;;;;;5074058;28;20060;-55
2023/07/02 06:36:57;;;;;;;21.85;6.15;;;17.50;99.90;;;;;;5074308;28;20048;-56
2023/07/02 06:39:23;;;;;;;14.90;5.28;;;17.60;99.90;;;;;;5074201;28;20041;-55
2023/07/02 06:41:49;;;;;;;15.43;5.18;;;17.70;99.90;;;;;;5074017;28;20036;-55
2023/07/02 06:44:14;;;;;;;13.70;5.07;;;17.80;99.90;;;;;;5073927;28;20120;-56
2023/07/02 06:46:40;;;;;;;14.50;5.70;;;17.70;99.90;;;;;;5074035;28;20498;-55
2023/07/02 06:49:06;;;;;;;14.38;4.43;;;17.60;99.90;;;;;;5073627;28;20037;-55
2023/07/02 06:51:34;;;;;;;12.32;4.35;;;17.40;99.90;;;;;;5072543;28;20499;-55
2023/07/02 06:53:59;;;;;;;14.00;3.97;;;17.60;99.90;;;;;;5073894;28;20045;-56
2023/07/02 06:56:25;;;;;;;12.38;5.28;;;17.60;99.90;;;;;;5070211;28;20033;-55
2023/07/02 06:58:51;;;;;;;15.27;3.92;;;17.80;99.90;;;;;;5095532;28;20037;-55
2023/07/02 07:01:16;;;;;;;13.23;3.45;;;17.90;99.90;;;;;;5073502;28;20406;-55
2023/07/02 07:03:42;;;;;;;13.32;5.03;;;17.90;99.90;;;;;;5073792;28;20032;-55
2023/07/02 07:06:08;;;;;;;13.10;4.30;;;18.00;99.90;;;;;;5073251;28;20082;-55
2023/07/02 07:08:37;;;;;;;11.15;3.42;;;18.00;99.90;;;;;;5072692;28;20490;-56
2023/07/02 07:11:03;;;;;;;14.80;3.95;;;17.80;99.90;;;;;;5073332;28;20111;-55
2023/07/02 07:13:28;;;;;;;10.95;3.45;;;18.00;99.90;;;;;;5073051;28;20547;-55
2023/07/02 07:15:54;;;;;;;11.55;3.20;;;18.10;99.90;;;;;;5073376;28;20036;-56
2023/07/02 07:18:20;;;;;;;10.80;4.28;;;18.30;99.90;;;;;;5073216;28;20108;-55
2023/07/02 07:20:46;;;;;;;9.85;3.20;;;18.40;99.90;;;;;;5073403;28;20071;-56
2023/07/02 07:23:12;;;;;;;9.90;2.97;;;18.50;99.90;;;;;;5072958;28;20125;-55
2023/07/02 07:25:37;;;;;;;11.52;3.58;;;18.50;99.90;;;;;;5073236;28;20110;-55
2023/07/02 07:28:03;;;;;;;10.18;3.05;;;18.60;99.90;;;;;;5073195;28;20044;-55
2023/07/02 07:30:29;;;;;;;17.02;3.60;;;18.60;99.90;;;;;;5073093;28;20046;-55
2023/07/02 07:32:55;;;;;;;12.23;3.55;;;18.60;99.90;;;;;;5072785;28;20056;-55
2023/07/02 07:35:21;;;;;;;13.95;3.80;;;18.70;99.90;;;;;;5072673;28;20051;-55
2023/07/02 07:37:47;;;;;;;9.55;3.53;;;18.90;99.90;;;;;;5073005;28;20112;-55
2023/07/02 07:40:14;;;;;;;8.80;3.38;;;19.00;99.90;;;;;;5073000;28;20033;-55
2023/07/02 07:42:40;;;;;;;12.68;2.90;;;19.10;99.90;;;;;;5059041;28;20067;-59
2023/07/02 07:45:06;;;;;;;7.78;2.97;;;19.00;99.90;;;;;;5072736;28;20079;-62
2023/07/02 07:47:32;;;;;;;11.27;2.85;;;19.20;99.90;;;;;;5072432;28;20112;-61
2023/07/02 07:49:58;;;;;;;8.90;2.92;;;19.30;99.90;;;;;;5072811;28;20119;-62
2023/07/02 07:52:23;;;;;;;9.02;2.80;;;19.00;99.90;;;;;;5072303;28;20106;-62
2023/07/02 07:54:49;;;;;;;8.55;3.42;;;19.10;99.90;;;;;;5072451;28;20028;-63
2023/07/02 07:57:14;;;;;;;8.15;3.00;;;19.40;99.90;;;;;;5060969;28;20124;-63
2023/07/02 07:59:40;;;;;;;9.02;4.03;;;19.50;99.90;;;;;;5068677;28;20108;-62
2023/07/02 08:02:06;;;;;;;9.13;2.85;;;19.60;99.90;;;;;;5072266;28;20040;-63
2023/07/02 08:04:32;;;;;;;12.82;2.97;;;20.20;99.90;;;;;;5072237;28;20114;-63
2023/07/02 08:06:57;;;;;;;16.30;3.30;;;20.40;99.90;;;;;;5072815;28;20079;-62
2023/07/02 08:09:24;;;;;;;9.55;3.47;;;20.70;99.90;;;;;;5072405;28;20047;-62
2023/07/02 08:11:50;;;;;;;16.92;4.57;;;20.50;99.90;;;;;;5072571;28;20048;-62
2023/07/02 08:14:16;;;;;;;13.23;3.40;;;19.90;99.90;;;;;;5071216;28;20047;-63
2023/07/02 08:16:42;;;;;;;11.20;3.90;;;19.50;99.90;;;;;;5070870;28;20051;-62
2023/07/02 08:19:08;;;;;;;17.20;4.22;;;19.10;99.90;;;;;;5071973;28;20382;-63
2023/07/02 08:21:33;;;;;;;11.60;3.47;;;18.80;99.90;;;;;;5070377;28;20045;-63
2023/07/02 08:23:59;;;;;;;16.35;4.32;;;18.60;99.90;;;;;;5072123;28;20182;-63
2023/07/02 08:26:24;;;;;;;10.98;4.13;;;18.30;99.90;;;;;;5072198;28;20039;-63
2023/07/02 08:28:50;;;;;;;12.23;3.67;;;18.20;99.90;;;;;;5071918;28;20071;-63
2023/07/02 08:31:16;;;;;;;11.70;3.50;;;18.10;99.90;;;;;;5072025;28;20471;-62
2023/07/02 08:33:42;;;;;;;14.85;3.47;;;18.20;99.90;;;;;;5071729;28;20063;-62
2023/07/02 08:36:07;;;;;;;10.27;3.70;;;18.10;99.90;;;;;;5071861;28;20502;-62
2023/07/02 08:38:33;;;;;;;12.98;5.07;;;17.90;99.90;;;;;;5070565;28;20043;-62
2023/07/02 08:40:59;;;;;;;14.02;4.60;;;17.80;99.90;;;;;;5072138;28;20112;-62
2023/07/02 08:43:26;;;;;;;15.32;4.18;;;17.80;99.90;;;;;;5072056;28;20043;-62
2023/07/02 08:45:53;;;;;;;14.47;4.87;;;17.90;99.90;;;;;;5070109;28;20044;-62
2023/07/02 08:48:22;;;;;;;9.95;3.72;;;18.10;99.90;;;;;;5072024;28;20346;-62
2023/07/02 08:50:49;;;;;;;11.60;4.15;;;18.70;99.90;;;;;;5071634;28;20479;-62
2023/07/02 08:53:15;;;;;;;9.48;4.22;;;19.20;99.90;;;;;;5071457;28;20058;-62
2023/07/02 08:55:41;;;;;;;13.60;3.47;;;19.30;99.90;;;;;;5070581;28;20113;-62
2023/07/02 08:58:06;;;;;;;12.77;3.72;;;19.40;99.90;;;;;;5057478;28;20029;-62
2023/07/02 09:00:36;;;;;;;15.23;4.20;;;19.50;99.90;;;;;;5071400;28;20032;-62
2023/07/02 09:03:17;;;;;;;15.38;3.92;;;19.20;99.90;;;;;;5071595;28;20430;-61
2023/07/02 09:05:51;;;;;;;12.57;3.28;;;19.50;99.90;;;;;;5072053;28;20509;-62
2023/07/02 09:08:27;;;;;;;9.55;3.65;;;19.90;99.90;;;;;;5071836;28;20036;-63
2023/07/02 09:10:53;;;;;;;11.77;3.10;;;20.00;99.90;;;;;;5070333;28;20048;-62
2023/07/02 09:13:19;;;;;;;10.85;3.20;;;20.20;99.90;;;;;;5071598;28;20080;-62
2023/07/02 09:15:45;;;;;;;9.02;3.30;;;20.30;99.90;;;;;;5070286;28;20120;-62
2023/07/02 09:18:21;;;;;;;13.18;3.03;;;20.80;99.90;;;;;;5071470;28;20090;-62
2023/07/02 09:20:51;;;;;;;11.68;3.55;;;21.00;99.90;;;;;;5070136;28;20063;-61
2023/07/02 09:23:16;;;;;;;10.80;2.53;;;21.10;99.90;;;;;;5070250;28;20048;-62
2023/07/02 09:25:42;;;;;;;14.63;3.13;;;21.30;99.90;;;;;;5071453;28;20116;-63
2023/07/02 09:28:23;;;;;;;7.40;2.95;;;21.70;99.90;;;;;;5071602;28;20047;-62
2023/07/02 09:30:53;;;;;;;10.52;3.53;;;21.80;99.90;;;;;;5059736;28;20087;-64
2023/07/02 09:33:19;;;;;;;10.40;3.08;;;21.80;99.90;;;;;;5074989;28;20084;-63
2023/07/02 09:35:45;;;;;;;9.98;3.17;;;21.70;99.90;;;;;;5073855;28;20126;-62
2023/07/02 09:38:12;;;;;;;6.30;2.47;;;21.30;99.90;;;;;;5075329;28;20036;-64
2023/07/02 09:40:45;;;;;;;10.15;2.75;;;21.30;99.90;;;;;;5074844;28;20028;-62
2023/07/02 09:43:12;;;;;;;12.23;2.90;;;21.40;99.90;;;;;;5075476;28;20080;-63
2023/07/02 09:45:41;;;;;;;11.57;3.20;;;21.50;99.90;;;;;;5075331;28;20040;-62
2023/07/02 09:48:07;;;;;;;9.25;2.30;;;21.00;99.90;;;;;;5074890;28;20041;-63
2023/07/02 09:50:34;;;;;;;9.10;2.83;;;20.90;99.90;;;;;;5074756;28;20045;-64
2023/07/02 09:53:00;;;;;;;7.38;2.15;;;20.60;99.90;;;;;;5075396;28;20036;-62
2023/07/02 09:55:26;;;;;;;12.35;2.80;;;20.60;99.90;;;;;;5074971;28;20464;-63
2023/07/02 09:57:52;;;;;;;9.05;2.47;;;20.90;99.90;;;;;;5060910;28;20079;-63
2023/07/02 10:00:18;;;;;;;9.07;2.42;;;21.20;99.90;;;;;;5074650;28;20394;-63
2023/07/02 10:02:49;;;;;;;5.82;2.42;;;21.40;99.90;;;;;;5074617;28;20070;-63
2023/07/02 10:05:31;;;;;;;12.88;2.58;;;21.70;99.90;;;;;;5074702;28;20032;-64
2023/07/02 10:07:58;;;;;;;11.25;3.33;;;21.80;99.90;;;;;;5074601;28;20486;-64
2023/07/02 10:10:31;;;;;;;19.27;4.20;;;21.50;99.90;;;;;;5074360;28;20045;-64
2023/07/02 10:12:58;;;;;;;12.20;3.28;;;21.80;99.90;;;;;;5073120;28;20122;-63
2023/07/02 10:15:31;;;;;;;14.60;3.05;;;21.60;99.90;;;;;;5073118;28;20044;-63
2023/07/02 10:18:02;;;;;;;7.22;2.55;;;21.50;99.90;;;;;;5070446;28;20069;-63
2023/07/02 10:20:40;;;;;;;9.70;2.20;;;21.80;99.90;;;;;;5068295;28;20475;-63
2023/07/02 10:23:09;;;;;;;7.53;2.08;;;22.00;99.90;;;;;;5061860;28;20043;-64
2023/07/02 10:25:37;;;;;;;;;;;22.10;99.90;;;;;;5074634;28;20033;-65
2023/07/02 10:28:19;;;;;;;8.20;2.55;;;21.50;99.40;;;;;;5074168;28;19965;-63
2023/07/02 10:30:45;;;;;;;8.77;2.38;;;21.10;99.90;;;;;;5073079;28;20094;-64
2023/07/02 10:33:15;;;;;;;5.18;2.40;;;20.80;99.90;;;;;;5073869;28;20421;-64
2023/07/02 10:35:44;;;;;;;11.93;3.22;;;20.70;99.90;;;;;;5074177;28;20055;-63
2023/07/02 10:38:26;;;;;;;10.85;3.17;;;20.30;99.90;;;;;;5074130;28;20133;-64
2023/07/02 10:41:00;;;;;;;10.02;4.05;;;20.70;99.90;;;;;;5074273;28;20044;-63
2023/07/02 10:43:30;;;;;;;8.40;2.53;;;21.20;99.90;;;;;;5060912;28;20103;-63
2023/07/02 10:45:57;;;;;;;12.30;3.83;;;21.60;99.90;;;;;;5074013;28;20482;-63
2023/07/02 10:48:23;;;;;;;6.43;2.92;;;21.40;99.90;;;;;;5073709;28;20391;-64
2023/07/02 10:50:48;;;;;;;9.80;3.33;;;21.40;99.90;;;;;;5073580;28;20041;-63
2023/07/02 10:53:18;;;;;;;11.27;3.00;;;21.30;99.90;;;;;;5073962;28;20024;-64
2023/07/02 10:55:45;;;;;;;6.88;3.42;;;21.60;99.90;;;;;;5062943;28;20036;-63
2023/07/02 10:58:12;;;;;;;9.20;3.10;;;21.90;99.90;;;;;;5059891;28;20155;-63
2023/07/02 11:00:51;;;;;;;17.95;3.25;;;21.30;99.90;;;;;;5073490;28;20033;-63
2023/07/02 11:03:18;;;;;;;14.77;3.65;;;20.60;99.90;;;;;;5073611;28;20401;-64
2023/07/02 11:05:44;;;;;;;10.23;3.05;;;20.30;99.90;;;;;;5073573;28;20478;-63
2023/07/02 11:08:10;;;;;;;7.07;2.60;;;20.10;99.90;;;;;;5073396;28;20035;-63
2023/07/02 11:10:35;;;;;;;11.65;2.83;;;20.00;99.90;;;;;;5055915;28;20383;-64
2023/07/02 11:13:14;;;;;;;15.63;3.50;;;19.90;99.90;;;;;;5073386;28;20068;-62
2023/07/02 11:15:42;;;;;;;9.57;2.58;;;19.80;99.90;;;;;;5073391;28;20099;-64
2023/07/02 11:18:15;;;;;;;;;;;19.70;99.90;;;;;;5073888;28;20040;-63
2023/07/02 11:20:42;;;;;;;16.55;3.17;;;19.60;99.90;;;;;;5073374;28;19916;-63
2023/07/02 11:23:22;;;;;;;15.15;3.00;;;19.40;99.90;;;;;;5073414;28;20111;-63
2023/07/02 11:25:59;;;;;;;8.32;2.95;;;19.60;99.90;;;;;;5073531;28;20064;-64
2023/07/02 11:28:26;;;;;;;14.38;2.58;;;19.90;99.90;;;;;;5071510;28;20052;-62
2023/07/02 11:30:52;;;;;;;11.07;2.78;;;20.40;99.90;;;;;;5072950;28;20538;-62
2023/07/02 11:33:18;;;;;;;11.98;2.75;;;20.30;99.90;;;;;;5072954;28;20116;-63
2023/07/02 11:35:43;;;;;;;16.92;2.72;;;20.10;99.90;;;;;;5072811;28;20068;-63
2023/07/02 11:38:12;;;;;;;9.77;2.88;;;19.90;99.90;;;;;;5072756;28;20131;-63
2023/07/02 11:40:38;;;;;;;15.40;3.42;;;20.50;99.90;;;;;;5072699;28;20403;-62
2023/07/02 11:43:05;;;;;;;8.05;2.20;;;20.60;99.90;;;;;;5072774;28;20046;-64
2023/07/02 11:45:31;;;;;;;8.23;2.95;;;20.40;99.90;;;;;;5072929;28;20045;-63
2023/07/02 11:47:57;;;;;;;8.27;2.63;;;20.60;99.90;;;;;;5072545;28;20401;-63
2023/07/02 11:50:23;;;;;;;7.55;2.28;;;20.40;99.90;;;;;;5072796;28;20036;-63
2023/07/02 11:52:48;;;;;;;7.65;2.25;;;20.30;99.90;;;;;;5071765;28;20037;-62
2023/07/02 11:55:14;;;;;;;9.60;3.38;;;20.10;99.90;;;;;;5072277;28;20174;-63
2023/07/02 11:57:39;;;;;;;10.93;3.58;;;19.90;99.90;;;;;;5058702;28;20037;-63
2023/07/02 12:00:06;;;;;;;9.25;2.65;;;19.70;99.90;;;;;;5072013;28;20028;-62
2023/07/02 12:02:31;;;;;;;8.60;2.47;;;19.90;99.90;;;;;;5072949;28;20051;-62
2023/07/02 12:04:57;;;;;;;14.50;3.22;;;20.10;99.90;;;;;;5072356;28;20036;-63
2023/07/02 12:07:23;;;;;;;7.53;2.50;;;20.00;99.90;;;;;;5071248;28;20076;-63
2023/07/02 12:09:49;;;;;;;8.73;2.92;;;19.90;99.90;;;;;;5072332;28;20155;-63
2023/07/02 12:12:14;;;;;;;8.38;2.83;;;20.40;99.90;;;;;;5072195;28;20037;-62
2023/07/02 12:14:43;;;;;;;8.80;2.22;;;20.80;99.90;;;;;;5072420;28;20051;-63
2023/07/02 12:17:12;;;;;;;9.57;3.15;;;20.90;99.90;;;;;;5072618;28;20060;-63
2023/07/02 12:19:39;;;;;;;7.30;2.63;;;20.60;99.90;;;;;;5070928;28;20048;-64
2023/07/02 12:22:04;;;;;;;8.82;2.97;;;21.00;99.90;;;;;;5070786;28;20048;-63
2023/07/02 12:24:30;;;;;;;6.57;2.50;;;20.90;99.90;;;;;;5071949;28;20769;-64
2023/07/02 12:26:56;;;;;;;10.55;2.90;;;20.60;99.90;;;;;;5071781;28;20039;-56
2023/07/02 12:29:21;;;;;;;9.50;3.10;;;20.50;99.90;;;;;;5070485;28;20044;-56
2023/07/02 12:31:47;;;;;;;8.20;2.65;;;20.40;99.90;;;;;;5071664;28;20035;-56
2023/07/02 12:34:12;;;;;;;11.30;3.65;;;20.50;99.90;;;;;;5071653;28;20049;-56
2023/07/02 12:36:38;;;;;;;11.23;2.85;;;20.50;99.90;;;;;;5071950;28;20041;-56